sensor_id;sensor_type;location;lat;lon;timestamp;P1;durP1;ratioP1;P2;durP2;ratioP2
72127;SDS011;60000;51.030;7.024;2022-09-09T00:02:22;4.50;;;0.90;;
72127;SDS011;60000;51.030;7.024;2022-09-09T00:07:48;5.28;;;0.90;;
72127;SDS011;60000;51.030;7.024;2022-09-09T00:12:54;4.37;;;0.90;;
72127;SDS011;60000;51.030;7.024;2022-09-09T00:15:38;4.88;;;1.02;;
72127;SDS011;60000;51.030;7.024;2022-09-09T00:18:24;3.53;;;1.00;;
72127;SDS011;60000;51.030;7.024;2022-09-09T00:21:15;4.22;;;1.00;;
72127;SDS011;60000;51.030;7.024;2022-09-09T00:23:53;5.53;;;1.00;;
72127;SDS011;60000;51.030;7.024;2022-09-09T00:31:37;2.95;;;1.15;;
72127;SDS011;60000;51.030;7.024;2022-09-09T00:34:05;3.67;;;1.10;;
72127;SDS011;60000;51.030;7.024;2022-09-09T00:36:37;5.22;;;1.15;;
72127;SDS011;60000;51.030;7.024;2022-09-09T00:39:04;5.72;;;1.00;;
72127;SDS011;60000;51.030;7.024;2022-09-09T00:41:36;2.60;;;0.95;;
72127;SDS011;60000;51.030;7.024;2022-09-09T00:54:47;3.37;;;0.70;;
72127;SDS011;60000;51.030;7.024;2022-09-09T00:57:27;4.30;;;1.15;;
72127;SDS011;60000;51.030;7.024;2022-09-09T01:02:51;3.88;;;0.95;;
72127;SDS011;60000;51.030;7.024;2022-09-09T01:08:32;4.75;;;1.10;;
72127;SDS011;60000;51.030;7.024;2022-09-09T01:11:01;3.72;;;1.13;;
72127;SDS011;60000;51.030;7.024;2022-09-09T01:13:31;3.55;;;1.13;;
72127;SDS011;60000;51.030;7.024;2022-09-09T01:16:00;4.00;;;1.20;;
72127;SDS011;60000;51.030;7.024;2022-09-09T01:18:28;6.47;;;1.50;;
72127;SDS011;60000;51.030;7.024;2022-09-09T01:29:00;3.42;;;0.95;;
72127;SDS011;60000;51.030;7.024;2022-09-09T01:31:36;2.53;;;0.90;;
72127;SDS011;60000;51.030;7.024;2022-09-09T01:34:15;3.67;;;1.10;;
72127;SDS011;60000;51.030;7.024;2022-09-09T01:39:15;3.33;;;1.17;;
72127;SDS011;60000;51.030;7.024;2022-09-09T01:41:41;4.78;;;1.17;;
72127;SDS011;60000;51.030;7.024;2022-09-09T01:44:07;5.57;;;1.15;;
72127;SDS011;60000;51.030;7.024;2022-09-09T01:46:33;3.37;;;0.80;;
72127;SDS011;60000;51.030;7.024;2022-09-09T01:48:58;7.57;;;1.13;;
72127;SDS011;60000;51.030;7.024;2022-09-09T01:51:26;2.07;;;0.80;;
72127;SDS011;60000;51.030;7.024;2022-09-09T01:53:52;4.18;;;1.10;;
72127;SDS011;60000;51.030;7.024;2022-09-09T01:58:54;4.82;;;1.10;;
72127;SDS011;60000;51.030;7.024;2022-09-09T02:04:18;4.60;;;0.90;;
72127;SDS011;60000;51.030;7.024;2022-09-09T02:10:19;2.75;;;0.80;;
72127;SDS011;60000;51.030;7.024;2022-09-09T02:12:53;3.00;;;0.90;;
72127;SDS011;60000;51.030;7.024;2022-09-09T02:15:34;4.43;;;1.20;;
72127;SDS011;60000;51.030;7.024;2022-09-09T02:18:04;3.53;;;1.17;;
72127;SDS011;60000;51.030;7.024;2022-09-09T02:20:34;3.85;;;0.90;;
72127;SDS011;60000;51.030;7.024;2022-09-09T02:23:01;3.42;;;0.90;;
72127;SDS011;60000;51.030;7.024;2022-09-09T02:25:29;3.65;;;0.88;;
72127;SDS011;60000;51.030;7.024;2022-09-09T02:27:55;2.60;;;1.10;;
72127;SDS011;60000;51.030;7.024;2022-09-09T02:30:23;2.90;;;1.00;;
72127;SDS011;60000;51.030;7.024;2022-09-09T02:32:50;3.40;;;1.10;;
72127;SDS011;60000;51.030;7.024;2022-09-09T02:35:22;2.97;;;0.90;;
72127;SDS011;60000;51.030;7.024;2022-09-09T02:37:49;4.00;;;1.17;;
72127;SDS011;60000;51.030;7.024;2022-09-09T02:40:17;3.30;;;0.80;;
72127;SDS011;60000;51.030;7.024;2022-09-09T02:42:44;2.70;;;1.00;;
72127;SDS011;60000;51.030;7.024;2022-09-09T02:45:12;3.40;;;1.00;;
72127;SDS011;60000;51.030;7.024;2022-09-09T02:48:14;2.33;;;1.00;;
72127;SDS011;60000;51.030;7.024;2022-09-09T02:51:02;5.65;;;1.00;;
72127;SDS011;60000;51.030;7.024;2022-09-09T02:56:29;4.47;;;1.00;;
72127;SDS011;60000;51.030;7.024;2022-09-09T02:58:58;3.47;;;1.00;;
72127;SDS011;60000;51.030;7.024;2022-09-09T03:01:24;6.13;;;1.07;;
72127;SDS011;60000;51.030;7.024;2022-09-09T03:03:49;4.83;;;1.57;;
72127;SDS011;60000;51.030;7.024;2022-09-09T03:06:15;2.80;;;1.00;;
72127;SDS011;60000;51.030;7.024;2022-09-09T03:08:40;4.13;;;1.10;;
72127;SDS011;60000;51.030;7.024;2022-09-09T03:11:10;3.63;;;0.85;;
72127;SDS011;60000;51.030;7.024;2022-09-09T03:13:36;4.57;;;1.23;;
72127;SDS011;60000;51.030;7.024;2022-09-09T03:16:02;5.53;;;1.10;;
72127;SDS011;60000;51.030;7.024;2022-09-09T03:18:28;2.63;;;0.80;;
72127;SDS011;60000;51.030;7.024;2022-09-09T03:20:54;1.87;;;0.80;;
72127;SDS011;60000;51.030;7.024;2022-09-09T03:23:19;5.10;;;1.10;;
72127;SDS011;60000;51.030;7.024;2022-09-09T03:25:47;3.60;;;0.80;;
72127;SDS011;60000;51.030;7.024;2022-09-09T03:28:13;3.45;;;1.00;;
72127;SDS011;60000;51.030;7.024;2022-09-09T03:30:39;3.43;;;0.83;;
72127;SDS011;60000;51.030;7.024;2022-09-09T03:33:04;5.93;;;1.10;;
72127;SDS011;60000;51.030;7.024;2022-09-09T03:35:29;4.37;;;1.20;;
72127;SDS011;60000;51.030;7.024;2022-09-09T03:37:55;2.50;;;0.87;;
72127;SDS011;60000;51.030;7.024;2022-09-09T03:40:20;4.50;;;1.00;;
72127;SDS011;60000;51.030;7.024;2022-09-09T03:42:46;3.13;;;1.10;;
72127;SDS011;60000;51.030;7.024;2022-09-09T03:45:11;1.93;;;0.80;;
72127;SDS011;60000;51.030;7.024;2022-09-09T03:47:37;4.07;;;1.23;;
72127;SDS011;60000;51.030;7.024;2022-09-09T03:50:02;3.80;;;0.90;;
72127;SDS011;60000;51.030;7.024;2022-09-09T03:52:31;4.03;;;1.10;;
72127;SDS011;60000;51.030;7.024;2022-09-09T03:54:56;2.20;;;0.87;;
72127;SDS011;60000;51.030;7.024;2022-09-09T03:57:21;4.30;;;0.90;;
72127;SDS011;60000;51.030;7.024;2022-09-09T03:59:47;2.90;;;1.00;;
72127;SDS011;60000;51.030;7.024;2022-09-09T04:02:12;3.23;;;1.10;;
72127;SDS011;60000;51.030;7.024;2022-09-09T04:04:37;3.73;;;0.90;;
72127;SDS011;60000;51.030;7.024;2022-09-09T04:07:03;3.00;;;1.20;;
72127;SDS011;60000;51.030;7.024;2022-09-09T04:09:31;4.57;;;1.10;;
72127;SDS011;60000;51.030;7.024;2022-09-09T04:11:57;4.43;;;1.05;;
72127;SDS011;60000;51.030;7.024;2022-09-09T04:14:22;2.73;;;1.00;;
72127;SDS011;60000;51.030;7.024;2022-09-09T04:16:47;5.40;;;1.20;;
72127;SDS011;60000;51.030;7.024;2022-09-09T04:19:13;4.30;;;1.00;;
72127;SDS011;60000;51.030;7.024;2022-09-09T04:21:39;5.53;;;1.00;;
72127;SDS011;60000;51.030;7.024;2022-09-09T04:24:07;5.00;;;1.23;;
72127;SDS011;60000;51.030;7.024;2022-09-09T04:26:34;4.40;;;1.23;;
72127;SDS011;60000;51.030;7.024;2022-09-09T04:29:01;5.30;;;1.27;;
72127;SDS011;60000;51.030;7.024;2022-09-09T04:31:27;5.97;;;1.20;;
72127;SDS011;60000;51.030;7.024;2022-09-09T04:33:54;3.65;;;1.00;;
72127;SDS011;60000;51.030;7.024;2022-09-09T04:36:19;4.63;;;1.00;;
72127;SDS011;60000;51.030;7.024;2022-09-09T04:38:45;3.77;;;1.00;;
72127;SDS011;60000;51.030;7.024;2022-09-09T04:41:10;3.92;;;0.93;;
72127;SDS011;60000;51.030;7.024;2022-09-09T04:43:36;4.90;;;1.03;;
72127;SDS011;60000;51.030;7.024;2022-09-09T04:46:03;6.22;;;1.10;;
72127;SDS011;60000;51.030;7.024;2022-09-09T04:48:29;4.90;;;0.90;;
72127;SDS011;60000;51.030;7.024;2022-09-09T04:50:56;3.05;;;1.10;;
72127;SDS011;60000;51.030;7.024;2022-09-09T04:53:24;4.33;;;1.10;;
72127;SDS011;60000;51.030;7.024;2022-09-09T04:55:50;4.35;;;1.17;;
72127;SDS011;60000;51.030;7.024;2022-09-09T04:58:36;5.35;;;1.00;;
72127;SDS011;60000;51.030;7.024;2022-09-09T05:01:03;4.47;;;1.02;;
72127;SDS011;60000;51.030;7.024;2022-09-09T05:03:29;8.07;;;1.47;;
72127;SDS011;60000;51.030;7.024;2022-09-09T05:06:01;5.40;;;1.20;;
72127;SDS011;60000;51.030;7.024;2022-09-09T05:08:47;4.72;;;1.13;;
72127;SDS011;60000;51.030;7.024;2022-09-09T05:11:24;3.58;;;1.00;;
72127;SDS011;60000;51.030;7.024;2022-09-09T05:13:52;4.47;;;0.80;;
72127;SDS011;60000;51.030;7.024;2022-09-09T05:16:18;5.10;;;1.10;;
72127;SDS011;60000;51.030;7.024;2022-09-09T05:18:44;2.77;;;1.20;;
72127;SDS011;60000;51.030;7.024;2022-09-09T05:21:14;6.25;;;1.10;;
72127;SDS011;60000;51.030;7.024;2022-09-09T05:23:40;4.82;;;1.10;;
72127;SDS011;60000;51.030;7.024;2022-09-09T05:26:06;4.80;;;1.00;;
72127;SDS011;60000;51.030;7.024;2022-09-09T05:28:36;3.92;;;1.00;;
72127;SDS011;60000;51.030;7.024;2022-09-09T05:31:03;4.20;;;1.40;;
72127;SDS011;60000;51.030;7.024;2022-09-09T05:33:30;4.15;;;1.02;;
72127;SDS011;60000;51.030;7.024;2022-09-09T05:36:00;6.40;;;1.17;;
72127;SDS011;60000;51.030;7.024;2022-09-09T05:38:30;5.53;;;1.30;;
72127;SDS011;60000;51.030;7.024;2022-09-09T05:40:57;3.85;;;0.95;;
72127;SDS011;60000;51.030;7.024;2022-09-09T05:43:23;3.87;;;0.93;;
72127;SDS011;60000;51.030;7.024;2022-09-09T05:45:58;5.38;;;1.23;;
72127;SDS011;60000;51.030;7.024;2022-09-09T05:48:31;2.40;;;0.95;;
72127;SDS011;60000;51.030;7.024;2022-09-09T05:50:58;4.95;;;1.30;;
72127;SDS011;60000;51.030;7.024;2022-09-09T05:53:24;5.75;;;1.10;;
72127;SDS011;60000;51.030;7.024;2022-09-09T05:55:57;6.97;;;1.10;;
72127;SDS011;60000;51.030;7.024;2022-09-09T05:58:23;3.03;;;0.93;;
72127;SDS011;60000;51.030;7.024;2022-09-09T06:00:49;3.33;;;1.10;;
72127;SDS011;60000;51.030;7.024;2022-09-09T06:03:15;4.97;;;1.20;;
72127;SDS011;60000;51.030;7.024;2022-09-09T06:05:41;4.35;;;1.40;;
72127;SDS011;60000;51.030;7.024;2022-09-09T06:08:07;3.50;;;0.90;;
72127;SDS011;60000;51.030;7.024;2022-09-09T06:10:32;7.10;;;1.23;;
72127;SDS011;60000;51.030;7.024;2022-09-09T06:12:59;3.27;;;1.03;;
72127;SDS011;60000;51.030;7.024;2022-09-09T06:15:24;5.65;;;1.17;;
72127;SDS011;60000;51.030;7.024;2022-09-09T06:17:53;5.70;;;1.00;;
72127;SDS011;60000;51.030;7.024;2022-09-09T06:20:20;3.95;;;0.95;;
72127;SDS011;60000;51.030;7.024;2022-09-09T06:22:46;5.30;;;1.10;;
72127;SDS011;60000;51.030;7.024;2022-09-09T06:25:14;7.32;;;1.38;;
72127;SDS011;60000;51.030;7.024;2022-09-09T06:27:39;3.58;;;0.95;;
72127;SDS011;60000;51.030;7.024;2022-09-09T06:30:05;4.85;;;0.98;;
72127;SDS011;60000;51.030;7.024;2022-09-09T06:32:32;2.80;;;0.90;;
72127;SDS011;60000;51.030;7.024;2022-09-09T06:34:59;7.30;;;1.37;;
72127;SDS011;60000;51.030;7.024;2022-09-09T06:37:26;4.57;;;1.50;;
72127;SDS011;60000;51.030;7.024;2022-09-09T06:39:52;6.63;;;1.10;;
72127;SDS011;60000;51.030;7.024;2022-09-09T06:42:19;6.70;;;1.17;;
72127;SDS011;60000;51.030;7.024;2022-09-09T06:44:44;4.60;;;1.20;;
72127;SDS011;60000;51.030;7.024;2022-09-09T06:47:10;6.40;;;1.10;;
72127;SDS011;60000;51.030;7.024;2022-09-09T06:49:36;2.25;;;0.70;;
72127;SDS011;60000;51.030;7.024;2022-09-09T06:52:01;3.30;;;0.93;;
72127;SDS011;60000;51.030;7.024;2022-09-09T06:54:26;6.13;;;1.23;;
72127;SDS011;60000;51.030;7.024;2022-09-09T06:56:51;5.37;;;1.10;;
72127;SDS011;60000;51.030;7.024;2022-09-09T06:59:17;4.43;;;0.90;;
72127;SDS011;60000;51.030;7.024;2022-09-09T07:01:42;5.03;;;1.00;;
72127;SDS011;60000;51.030;7.024;2022-09-09T07:04:16;3.97;;;1.00;;
72127;SDS011;60000;51.030;7.024;2022-09-09T07:06:42;3.93;;;1.10;;
72127;SDS011;60000;51.030;7.024;2022-09-09T07:09:10;6.57;;;1.55;;
72127;SDS011;60000;51.030;7.024;2022-09-09T07:11:38;3.95;;;1.05;;
72127;SDS011;60000;51.030;7.024;2022-09-09T07:14:06;4.23;;;1.30;;
72127;SDS011;60000;51.030;7.024;2022-09-09T07:16:33;7.78;;;1.10;;
72127;SDS011;60000;51.030;7.024;2022-09-09T07:19:02;3.53;;;0.90;;
72127;SDS011;60000;51.030;7.024;2022-09-09T07:21:28;3.78;;;1.00;;
72127;SDS011;60000;51.030;7.024;2022-09-09T07:23:55;5.03;;;1.10;;
72127;SDS011;60000;51.030;7.024;2022-09-09T07:26:22;7.60;;;1.17;;
72127;SDS011;60000;51.030;7.024;2022-09-09T07:28:51;6.32;;;1.10;;
72127;SDS011;60000;51.030;7.024;2022-09-09T07:31:21;4.20;;;1.17;;
72127;SDS011;60000;51.030;7.024;2022-09-09T07:33:50;4.57;;;1.20;;
72127;SDS011;60000;51.030;7.024;2022-09-09T07:36:16;5.13;;;1.23;;
72127;SDS011;60000;51.030;7.024;2022-09-09T07:38:49;4.45;;;1.00;;
72127;SDS011;60000;51.030;7.024;2022-09-09T07:41:18;3.80;;;0.90;;
72127;SDS011;60000;51.030;7.024;2022-09-09T07:43:59;3.47;;;1.10;;
72127;SDS011;60000;51.030;7.024;2022-09-09T07:46:25;4.38;;;0.95;;
72127;SDS011;60000;51.030;7.024;2022-09-09T07:48:54;7.03;;;1.13;;
72127;SDS011;60000;51.030;7.024;2022-09-09T07:51:23;3.28;;;0.82;;
72127;SDS011;60000;51.030;7.024;2022-09-09T07:53:54;4.22;;;1.05;;
72127;SDS011;60000;51.030;7.024;2022-09-09T07:56:22;7.05;;;1.13;;
72127;SDS011;60000;51.030;7.024;2022-09-09T07:58:48;3.53;;;0.85;;
72127;SDS011;60000;51.030;7.024;2022-09-09T08:01:16;5.17;;;1.10;;
72127;SDS011;60000;51.030;7.024;2022-09-09T08:03:43;5.07;;;0.98;;
72127;SDS011;60000;51.030;7.024;2022-09-09T08:06:09;3.60;;;1.00;;
72127;SDS011;60000;51.030;7.024;2022-09-09T08:08:36;5.05;;;1.20;;
72127;SDS011;60000;51.030;7.024;2022-09-09T08:11:12;2.95;;;0.73;;
72127;SDS011;60000;51.030;7.024;2022-09-09T08:13:39;5.37;;;1.50;;
72127;SDS011;60000;51.030;7.024;2022-09-09T08:16:06;6.60;;;1.20;;
72127;SDS011;60000;51.030;7.024;2022-09-09T08:18:33;4.30;;;0.90;;
72127;SDS011;60000;51.030;7.024;2022-09-09T08:21:21;3.40;;;1.10;;
72127;SDS011;60000;51.030;7.024;2022-09-09T08:23:50;6.47;;;1.17;;
72127;SDS011;60000;51.030;7.024;2022-09-09T08:26:18;4.65;;;1.00;;
72127;SDS011;60000;51.030;7.024;2022-09-09T08:28:51;9.90;;;1.20;;
72127;SDS011;60000;51.030;7.024;2022-09-09T08:31:18;5.78;;;1.13;;
72127;SDS011;60000;51.030;7.024;2022-09-09T08:33:46;3.30;;;0.70;;
72127;SDS011;60000;51.030;7.024;2022-09-09T08:36:13;4.10;;;0.83;;
72127;SDS011;60000;51.030;7.024;2022-09-09T08:38:40;5.80;;;1.00;;
72127;SDS011;60000;51.030;7.024;2022-09-09T08:41:50;3.42;;;0.80;;
72127;SDS011;60000;51.030;7.024;2022-09-09T08:55:10;2.33;;;0.80;;
72127;SDS011;60000;51.030;7.024;2022-09-09T08:57:39;4.45;;;1.00;;
72127;SDS011;60000;51.030;7.024;2022-09-09T09:00:07;3.63;;;1.33;;
72127;SDS011;60000;51.030;7.024;2022-09-09T09:02:42;7.40;;;1.20;;
72127;SDS011;60000;51.030;7.024;2022-09-09T09:05:29;3.33;;;0.70;;
72127;SDS011;60000;51.030;7.024;2022-09-09T09:08:05;5.03;;;1.17;;
72127;SDS011;60000;51.030;7.024;2022-09-09T09:10:46;7.85;;;0.90;;
72127;SDS011;60000;51.030;7.024;2022-09-09T09:13:15;6.20;;;1.05;;
72127;SDS011;60000;51.030;7.024;2022-09-09T09:15:46;3.90;;;1.20;;
72127;SDS011;60000;51.030;7.024;2022-09-09T09:18:17;2.83;;;0.70;;
72127;SDS011;60000;51.030;7.024;2022-09-09T09:20:49;5.95;;;1.08;;
72127;SDS011;60000;51.030;7.024;2022-09-09T09:23:21;2.55;;;0.80;;
72127;SDS011;60000;51.030;7.024;2022-09-09T09:25:49;3.77;;;0.90;;
72127;SDS011;60000;51.030;7.024;2022-09-09T09:28:17;2.70;;;0.80;;
72127;SDS011;60000;51.030;7.024;2022-09-09T09:31:04;3.67;;;0.70;;
72127;SDS011;60000;51.030;7.024;2022-09-09T09:33:41;5.95;;;1.00;;
72127;SDS011;60000;51.030;7.024;2022-09-09T09:36:12;3.75;;;0.90;;
72127;SDS011;60000;51.030;7.024;2022-09-09T09:38:40;1.70;;;0.77;;
72127;SDS011;60000;51.030;7.024;2022-09-09T09:41:27;4.45;;;0.70;;
72127;SDS011;60000;51.030;7.024;2022-09-09T09:43:57;5.60;;;1.30;;
72127;SDS011;60000;51.030;7.024;2022-09-09T09:46:24;1.97;;;0.60;;
72127;SDS011;60000;51.030;7.024;2022-09-09T09:51:30;3.95;;;0.80;;
72127;SDS011;60000;51.030;7.024;2022-09-09T09:56:56;5.75;;;1.10;;
72127;SDS011;60000;51.030;7.024;2022-09-09T09:59:33;4.07;;;0.70;;
72127;SDS011;60000;51.030;7.024;2022-09-09T10:04:37;3.38;;;0.60;;
72127;SDS011;60000;51.030;7.024;2022-09-09T10:07:10;4.10;;;0.90;;
72127;SDS011;60000;51.030;7.024;2022-09-09T10:09:42;2.92;;;0.88;;
72127;SDS011;60000;51.030;7.024;2022-09-09T10:12:30;2.43;;;0.80;;
72127;SDS011;60000;51.030;7.024;2022-09-09T10:15:09;8.65;;;1.08;;
72127;SDS011;60000;51.030;7.024;2022-09-09T10:21:13;5.85;;;0.98;;
72127;SDS011;60000;51.030;7.024;2022-09-09T10:43:09;2.35;;;0.75;;
72127;SDS011;60000;51.030;7.024;2022-09-09T10:46:02;4.40;;;1.10;;
72127;SDS011;60000;51.030;7.024;2022-09-09T10:48:44;2.55;;;0.90;;
72127;SDS011;60000;51.030;7.024;2022-09-09T10:56:30;4.07;;;0.97;;
72127;SDS011;60000;51.030;7.024;2022-09-09T10:58:58;5.50;;;0.95;;
72127;SDS011;60000;51.030;7.024;2022-09-09T11:04:15;2.42;;;0.70;;
72127;SDS011;60000;51.030;7.024;2022-09-09T11:06:45;3.60;;;0.90;;
72127;SDS011;60000;51.030;7.024;2022-09-09T11:09:18;4.10;;;0.90;;
72127;SDS011;60000;51.030;7.024;2022-09-09T11:11:56;3.75;;;0.80;;
72127;SDS011;60000;51.030;7.024;2022-09-09T11:14:26;8.27;;;0.90;;
72127;SDS011;60000;51.030;7.024;2022-09-09T11:16:58;3.20;;;1.10;;
72127;SDS011;60000;51.030;7.024;2022-09-09T11:19:35;2.85;;;0.80;;
72127;SDS011;60000;51.030;7.024;2022-09-09T11:22:02;3.65;;;0.90;;
72127;SDS011;60000;51.030;7.024;2022-09-09T11:24:43;2.80;;;0.80;;
72127;SDS011;60000;51.030;7.024;2022-09-09T11:35:44;4.30;;;0.90;;
72127;SDS011;60000;51.030;7.024;2022-09-09T11:41:12;6.03;;;0.97;;
72127;SDS011;60000;51.030;7.024;2022-09-09T11:43:43;4.72;;;0.90;;
72127;SDS011;60000;51.030;7.024;2022-09-09T11:46:11;2.60;;;0.88;;
72127;SDS011;60000;51.030;7.024;2022-09-09T11:48:42;1.92;;;0.80;;
72127;SDS011;60000;51.030;7.024;2022-09-09T11:53:54;3.63;;;0.80;;
72127;SDS011;60000;51.030;7.024;2022-09-09T11:59:02;2.60;;;0.70;;
72127;SDS011;60000;51.030;7.024;2022-09-09T12:01:34;2.72;;;0.70;;
72127;SDS011;60000;51.030;7.024;2022-09-09T12:06:54;2.92;;;0.77;;
72127;SDS011;60000;51.030;7.024;2022-09-09T12:09:38;4.07;;;0.90;;
72127;SDS011;60000;51.030;7.024;2022-09-09T12:12:38;2.88;;;0.80;;
72127;SDS011;60000;51.030;7.024;2022-09-09T12:17:41;2.92;;;0.70;;
72127;SDS011;60000;51.030;7.024;2022-09-09T12:33:49;4.65;;;0.70;;
72127;SDS011;60000;51.030;7.024;2022-09-09T12:36:25;2.83;;;0.80;;
72127;SDS011;60000;51.030;7.024;2022-09-09T12:38:59;5.57;;;0.88;;
72127;SDS011;60000;51.030;7.024;2022-09-09T12:41:35;2.92;;;0.60;;
72127;SDS011;60000;51.030;7.024;2022-09-09T12:44:09;3.23;;;0.70;;
72127;SDS011;60000;51.030;7.024;2022-09-09T12:46:39;2.17;;;0.80;;
72127;SDS011;60000;51.030;7.024;2022-09-09T12:52:26;2.47;;;0.70;;
72127;SDS011;60000;51.030;7.024;2022-09-09T12:54:55;1.90;;;0.70;;
72127;SDS011;60000;51.030;7.024;2022-09-09T12:57:22;2.33;;;0.70;;
72127;SDS011;60000;51.030;7.024;2022-09-09T12:59:50;4.30;;;0.93;;
72127;SDS011;60000;51.030;7.024;2022-09-09T13:04:41;1.67;;;0.67;;
72127;SDS011;60000;51.030;7.024;2022-09-09T13:07:07;3.37;;;0.80;;
72127;SDS011;60000;51.030;7.024;2022-09-09T13:09:34;3.67;;;1.15;;
72127;SDS011;60000;51.030;7.024;2022-09-09T13:12:00;3.73;;;0.90;;
72127;SDS011;60000;51.030;7.024;2022-09-09T13:14:30;8.50;;;1.40;;
72127;SDS011;60000;51.030;7.024;2022-09-09T13:17:00;6.28;;;1.30;;
72127;SDS011;60000;51.030;7.024;2022-09-09T13:19:36;4.85;;;1.17;;
72127;SDS011;60000;51.030;7.024;2022-09-09T13:22:13;4.70;;;1.17;;
72127;SDS011;60000;51.030;7.024;2022-09-09T13:24:44;13.45;;;2.20;;
72127;SDS011;60000;51.030;7.024;2022-09-09T13:27:29;6.17;;;1.40;;
72127;SDS011;60000;51.030;7.024;2022-09-09T13:29:56;11.45;;;2.10;;
72127;SDS011;60000;51.030;7.024;2022-09-09T13:32:22;7.90;;;1.90;;
72127;SDS011;60000;51.030;7.024;2022-09-09T13:34:58;8.23;;;1.67;;
72127;SDS011;60000;51.030;7.024;2022-09-09T13:37:35;4.93;;;1.08;;
72127;SDS011;60000;51.030;7.024;2022-09-09T13:40:02;3.90;;;1.42;;
72127;SDS011;60000;51.030;7.024;2022-09-09T13:42:32;4.32;;;1.00;;
72127;SDS011;60000;51.030;7.024;2022-09-09T13:45:00;4.50;;;1.20;;
72127;SDS011;60000;51.030;7.024;2022-09-09T13:47:30;4.55;;;1.10;;
72127;SDS011;60000;51.030;7.024;2022-09-09T13:49:58;2.72;;;0.98;;
72127;SDS011;60000;51.030;7.024;2022-09-09T13:52:23;4.40;;;1.20;;
72127;SDS011;60000;51.030;7.024;2022-09-09T13:54:49;4.73;;;1.30;;
72127;SDS011;60000;51.030;7.024;2022-09-09T13:57:16;9.07;;;1.77;;
72127;SDS011;60000;51.030;7.024;2022-09-09T13:59:47;6.75;;;1.63;;
72127;SDS011;60000;51.030;7.024;2022-09-09T14:02:13;8.70;;;1.37;;
72127;SDS011;60000;51.030;7.024;2022-09-09T14:04:38;7.45;;;1.08;;
72127;SDS011;60000;51.030;7.024;2022-09-09T14:07:07;6.95;;;1.27;;
72127;SDS011;60000;51.030;7.024;2022-09-09T14:09:36;5.75;;;1.25;;
72127;SDS011;60000;51.030;7.024;2022-09-09T14:12:01;4.50;;;1.10;;
72127;SDS011;60000;51.030;7.024;2022-09-09T14:14:27;5.28;;;1.17;;
72127;SDS011;60000;51.030;7.024;2022-09-09T14:16:52;4.73;;;1.20;;
72127;SDS011;60000;51.030;7.024;2022-09-09T14:19:18;3.87;;;0.97;;
72127;SDS011;60000;51.030;7.024;2022-09-09T14:21:43;1.83;;;0.60;;
72127;SDS011;60000;51.030;7.024;2022-09-09T14:24:08;3.60;;;0.77;;
72127;SDS011;60000;51.030;7.024;2022-09-09T14:26:34;4.83;;;0.70;;
72127;SDS011;60000;51.030;7.024;2022-09-09T14:28:59;4.45;;;0.80;;
72127;SDS011;60000;51.030;7.024;2022-09-09T14:31:26;3.67;;;1.00;;
72127;SDS011;60000;51.030;7.024;2022-09-09T14:33:51;4.83;;;1.10;;
72127;SDS011;60000;51.030;7.024;2022-09-09T14:36:17;3.90;;;0.93;;
72127;SDS011;60000;51.030;7.024;2022-09-09T14:38:43;7.25;;;1.40;;
72127;SDS011;60000;51.030;7.024;2022-09-09T14:41:12;5.67;;;1.30;;
72127;SDS011;60000;51.030;7.024;2022-09-09T14:43:41;3.53;;;1.00;;
72127;SDS011;60000;51.030;7.024;2022-09-09T14:46:07;4.97;;;1.00;;
72127;SDS011;60000;51.030;7.024;2022-09-09T14:48:34;3.55;;;1.10;;
72127;SDS011;60000;51.030;7.024;2022-09-09T14:51:10;4.67;;;1.00;;
72127;SDS011;60000;51.030;7.024;2022-09-09T14:53:37;2.42;;;0.88;;
72127;SDS011;60000;51.030;7.024;2022-09-09T14:56:08;3.10;;;0.80;;
72127;SDS011;60000;51.030;7.024;2022-09-09T14:58:36;3.50;;;0.90;;
72127;SDS011;60000;51.030;7.024;2022-09-09T15:01:06;5.23;;;1.00;;
72127;SDS011;60000;51.030;7.024;2022-09-09T15:03:35;3.35;;;0.80;;
72127;SDS011;60000;51.030;7.024;2022-09-09T15:06:05;3.92;;;1.20;;
72127;SDS011;60000;51.030;7.024;2022-09-09T15:08:38;2.80;;;0.80;;
72127;SDS011;60000;51.030;7.024;2022-09-09T15:11:05;4.32;;;1.02;;
72127;SDS011;60000;51.030;7.024;2022-09-09T15:13:35;4.73;;;1.00;;
72127;SDS011;60000;51.030;7.024;2022-09-09T15:18:30;2.72;;;0.90;;
72127;SDS011;60000;51.030;7.024;2022-09-09T15:20:58;2.50;;;0.85;;
72127;SDS011;60000;51.030;7.024;2022-09-09T15:23:24;4.03;;;1.00;;
72127;SDS011;60000;51.030;7.024;2022-09-09T15:25:53;5.30;;;1.30;;
72127;SDS011;60000;51.030;7.024;2022-09-09T15:28:20;2.33;;;0.90;;
72127;SDS011;60000;51.030;7.024;2022-09-09T15:30:52;2.47;;;1.00;;
72127;SDS011;60000;51.030;7.024;2022-09-09T15:33:19;3.42;;;0.98;;
72127;SDS011;60000;51.030;7.024;2022-09-09T15:35:45;1.65;;;0.65;;
72127;SDS011;60000;51.030;7.024;2022-09-09T15:38:10;3.60;;;1.07;;
72127;SDS011;60000;51.030;7.024;2022-09-09T15:40:38;4.22;;;0.90;;
72127;SDS011;60000;51.030;7.024;2022-09-09T15:43:04;3.47;;;0.90;;
72127;SDS011;60000;51.030;7.024;2022-09-09T15:45:31;3.30;;;1.10;;
72127;SDS011;60000;51.030;7.024;2022-09-09T15:47:58;3.88;;;1.10;;
72127;SDS011;60000;51.030;7.024;2022-09-09T15:50:24;2.03;;;0.80;;
72127;SDS011;60000;51.030;7.024;2022-09-09T15:52:49;3.00;;;0.90;;
72127;SDS011;60000;51.030;7.024;2022-09-09T15:55:14;3.80;;;0.90;;
72127;SDS011;60000;51.030;7.024;2022-09-09T15:57:40;3.47;;;1.53;;
72127;SDS011;60000;51.030;7.024;2022-09-09T16:00:05;3.05;;;1.30;;
72127;SDS011;60000;51.030;7.024;2022-09-09T16:02:31;8.07;;;4.70;;
72127;SDS011;60000;51.030;7.024;2022-09-09T16:04:57;17.20;;;7.50;;
72127;SDS011;60000;51.030;7.024;2022-09-09T16:07:23;12.90;;;5.70;;
72127;SDS011;60000;51.030;7.024;2022-09-09T16:09:48;14.30;;;6.47;;
72127;SDS011;60000;51.030;7.024;2022-09-09T16:12:15;6.55;;;2.70;;
72127;SDS011;60000;51.030;7.024;2022-09-09T16:14:41;5.65;;;1.20;;
72127;SDS011;60000;51.030;7.024;2022-09-09T16:17:06;2.93;;;1.07;;
72127;SDS011;60000;51.030;7.024;2022-09-09T16:19:32;3.33;;;1.20;;
72127;SDS011;60000;51.030;7.024;2022-09-09T16:21:57;2.73;;;0.83;;
72127;SDS011;60000;51.030;7.024;2022-09-09T16:24:23;3.05;;;0.90;;
72127;SDS011;60000;51.030;7.024;2022-09-09T16:26:50;2.73;;;0.97;;
72127;SDS011;60000;51.030;7.024;2022-09-09T16:29:17;2.40;;;0.90;;
72127;SDS011;60000;51.030;7.024;2022-09-09T16:31:44;2.97;;;0.80;;
72127;SDS011;60000;51.030;7.024;2022-09-09T16:34:11;2.42;;;0.90;;
72127;SDS011;60000;51.030;7.024;2022-09-09T16:36:38;2.33;;;0.80;;
72127;SDS011;60000;51.030;7.024;2022-09-09T16:39:06;4.18;;;0.85;;
72127;SDS011;60000;51.030;7.024;2022-09-09T16:41:34;3.17;;;0.75;;
72127;SDS011;60000;51.030;7.024;2022-09-09T16:44:00;2.22;;;0.88;;
72127;SDS011;60000;51.030;7.024;2022-09-09T16:46:31;3.90;;;1.40;;
72127;SDS011;60000;51.030;7.024;2022-09-09T16:48:59;2.88;;;0.90;;
72127;SDS011;60000;51.030;7.024;2022-09-09T16:51:29;1.85;;;0.60;;
72127;SDS011;60000;51.030;7.024;2022-09-09T16:53:57;2.40;;;0.70;;
72127;SDS011;60000;51.030;7.024;2022-09-09T16:56:26;4.28;;;1.00;;
72127;SDS011;60000;51.030;7.024;2022-09-09T16:58:54;2.53;;;0.77;;
72127;SDS011;60000;51.030;7.024;2022-09-09T17:01:20;3.17;;;0.98;;
72127;SDS011;60000;51.030;7.024;2022-09-09T17:03:53;2.67;;;0.90;;
72127;SDS011;60000;51.030;7.024;2022-09-09T17:06:20;3.08;;;0.85;;
72127;SDS011;60000;51.030;7.024;2022-09-09T17:08:46;2.90;;;0.75;;
72127;SDS011;60000;51.030;7.024;2022-09-09T17:11:16;3.80;;;1.00;;
72127;SDS011;60000;51.030;7.024;2022-09-09T17:13:43;2.65;;;0.80;;
72127;SDS011;60000;51.030;7.024;2022-09-09T17:16:12;2.28;;;0.85;;
72127;SDS011;60000;51.030;7.024;2022-09-09T17:18:39;4.15;;;0.88;;
72127;SDS011;60000;51.030;7.024;2022-09-09T17:21:08;3.40;;;1.08;;
72127;SDS011;60000;51.030;7.024;2022-09-09T17:23:37;3.80;;;1.10;;
72127;SDS011;60000;51.030;7.024;2022-09-09T17:26:03;2.83;;;0.90;;